Time;durP1;ratioP1;P1;durP2;ratioP2;P2;SDS_P1;SDS_P2;PMS_P1;PMS_P2;Temp;Humidity;BMP_temperature;BMP_pressure;BME280_temperature;BME280_humidity;BME280_pressure;Samples;Min_cycle;Max_cycle;Signal;HPM_P1;HPM_P2
2022/05/02 00:00:43;;;;;;;3.63;1.92;;;;;;;17.50;40.39;99003.47;5032174;28;20037;-89
2022/05/02 00:03:09;;;;;;;5.50;2.08;;;;;;;17.47;40.60;98995.91;5031202;28;20037;-89
2022/05/02 00:05:35;;;;;;;4.68;2.00;;;;;;;17.40;40.71;98991.38;5031286;28;20122;-89
2022/05/02 00:08:01;;;;;;;4.20;2.33;;;;;;;17.40;40.85;98997.47;5031172;28;20033;-88
2022/05/02 00:10:26;;;;;;;6.38;2.13;;;;;;;17.34;41.16;98992.81;5014750;28;20120;-83
2022/05/02 00:12:51;;;;;;;3.47;2.00;;;;;;;17.35;41.29;99000.59;5013552;28;20037;-88
2022/05/02 00:15:17;;;;;;;3.67;2.28;;;;;;;17.31;41.37;99001.84;5032404;28;20513;-88
2022/05/02 00:17:58;;;;;;;4.57;2.00;;;;;;;17.29;41.50;99003.00;5031982;28;20033;-89
2022/05/02 00:20:31;;;;;;;3.28;1.80;;;;;;;17.26;41.39;99006.78;5032128;28;20044;-88
2022/05/02 00:23:00;;;;;;;3.10;2.10;;;;;;;17.22;41.69;99007.22;5031209;28;20100;-89
2022/05/02 00:25:26;;;;;;;4.22;1.80;;;;;;;17.23;41.85;99019.44;5031050;28;20041;-87
2022/05/02 00:27:51;;;;;;;4.18;2.20;;;;;;;17.21;42.13;99016.16;5014526;28;20042;-88
2022/05/02 00:30:17;;;;;;;6.55;2.20;;;;;;;17.17;42.07;99007.69;5032028;28;20036;-90
2022/05/02 00:32:43;;;;;;;6.43;1.90;;;;;;;17.14;42.24;99014.13;5031019;28;20111;-89
2022/05/02 00:35:09;;;;;;;4.05;1.98;;;;;;;17.09;42.31;99012.91;5031618;28;20505;-89
2022/05/02 00:37:35;;;;;;;5.00;2.08;;;;;;;17.11;42.31;99000.38;5030804;28;20025;-87
2022/05/02 00:40:00;;;;;;;3.33;2.05;;;;;;;17.10;42.29;98999.56;5031913;28;20029;-87
2022/05/02 00:42:26;;;;;;;2.67;1.85;;;;;;;17.06;42.32;98995.56;5031800;28;20034;-89
2022/05/02 00:44:51;;;;;;;4.63;1.92;;;;;;;17.07;42.47;98997.22;5030142;28;20037;-88
2022/05/02 00:47:18;;;;;;;3.65;2.20;;;;;;;17.05;42.39;99001.03;5030694;28;20524;-88
2022/05/02 00:49:44;;;;;;;4.10;2.35;;;;;;;17.02;42.43;98994.22;5031762;28;20033;-87
2022/05/02 00:52:10;;;;;;;5.53;2.17;;;;;;;16.99;42.54;98986.63;5031992;28;20477;-86
2022/05/02 00:54:37;;;;;;;5.13;2.20;;;;;;;16.93;42.64;98982.75;5030519;28;20037;-87
2022/05/02 00:57:04;;;;;;;3.67;2.08;;;;;;;16.93;42.68;98985.41;5030936;28;20483;-77
2022/05/02 00:59:30;;;;;;;3.78;2.00;;;;;;;16.90;42.66;98983.06;5032336;28;20037;-84
2022/05/02 01:01:55;;;;;;;8.20;2.47;;;;;;;16.90;42.80;98990.16;5034501;28;20025;-84
2022/05/02 01:04:21;;;;;;;4.22;2.00;;;;;;;16.83;42.89;98982.81;5035132;28;20400;-84
2022/05/02 01:09:31;;;;;;;5.15;2.20;;;;;;;16.78;42.87;98971.91;5034251;28;20100;-84
2022/05/02 01:11:57;;;;;;;5.20;2.33;;;;;;;16.77;43.35;98986.06;5017409;28;20068;-84
2022/05/02 01:14:22;;;;;;;5.28;2.20;;;;;;;16.74;43.14;98975.81;5033985;28;20045;-84
2022/05/02 01:16:48;;;;;;;3.72;1.70;;;;;;;16.69;43.46;98974.63;5033736;28;20026;-84
2022/05/02 01:19:13;;;;;;;5.25;2.00;;;;;;;16.70;43.43;98979.75;5017075;28;20037;-83
2022/05/02 01:21:40;;;;;;;3.17;2.05;;;;;;;16.66;43.65;98982.84;5034972;28;20121;-83
2022/05/02 01:24:07;;;;;;;5.90;2.20;;;;;;;16.61;43.79;98973.56;5017150;28;20037;-82
2022/05/02 01:26:32;;;;;;;5.38;2.25;;;;;;;16.57;43.76;98974.00;5034861;28;20033;-84
2022/05/02 01:28:59;;;;;;;4.78;2.25;;;;;;;16.53;43.85;98970.03;5035171;28;20033;-84
2022/05/02 01:31:24;;;;;;;7.32;2.10;;;;;;;16.50;43.82;98971.16;5017344;28;20042;-84
2022/05/02 01:33:50;;;;;;;3.88;2.35;;;;;;;16.49;43.92;98971.28;5034724;28;20033;-84
2022/05/02 01:36:17;;;;;;;5.45;2.03;;;;;;;16.48;43.84;98967.84;5033447;28;20039;-83
2022/05/02 01:38:43;;;;;;;3.90;2.05;;;;;;;16.42;43.77;98961.34;5034111;28;20095;-84
2022/05/02 01:41:09;;;;;;;4.38;2.20;;;;;;;16.39;43.89;98953.75;5033642;28;20029;-84
2022/05/02 01:43:34;;;;;;;2.97;1.88;;;;;;;16.37;43.97;98960.97;5033527;28;20117;-84
2022/05/02 01:46:04;;;;;;;4.32;2.33;;;;;;;16.35;43.82;98957.66;5033262;28;20051;-84
2022/05/02 01:48:30;;;;;;;7.35;2.15;;;;;;;16.32;43.92;98954.47;5033342;28;20124;-84
2022/05/02 01:50:57;;;;;;;3.53;2.33;;;;;;;16.30;44.10;98946.72;5033198;28;20104;-83
2022/05/02 01:53:22;;;;;;;6.43;2.13;;;;;;;16.24;44.12;98935.00;5033911;28;20030;-83
2022/05/02 01:55:48;;;;;;;3.72;2.08;;;;;;;16.23;44.07;98938.59;5033444;28;20500;-85
2022/05/02 01:58:13;;;;;;;4.40;2.17;;;;;;;16.18;44.25;98940.03;5033272;28;20033;-87
2022/05/02 02:00:39;;;;;;;3.92;2.13;;;;;;;16.13;44.45;98940.47;5032795;28;20041;-84
2022/05/02 02:03:04;;;;;;;5.60;2.13;;;;;;;16.02;44.44;98928.34;5032657;28;20550;-83
2022/05/02 02:08:32;;;;;;;3.15;2.10;;;;;;;15.93;45.03;98923.94;5034047;28;20040;-85
2022/05/02 02:11:01;;;;;;;3.40;2.28;;;;;;;15.91;44.78;98918.00;5032999;28;20036;-84
2022/05/02 02:13:27;;;;;;;6.60;2.28;;;;;;;15.83;44.92;98913.47;5034361;28;20072;-84
2022/05/02 02:15:52;;;;;;;4.30;2.28;;;;;;;15.77;45.10;98916.69;5032816;28;20512;-84
2022/05/02 02:18:18;;;;;;;4.30;2.17;;;;;;;15.74;44.98;98914.31;5034107;28;20029;-84
2022/05/02 02:20:45;;;;;;;5.63;2.08;;;;;;;15.67;45.18;98914.06;5032733;28;20087;-84
2022/05/02 02:23:10;;;;;;;6.78;2.28;;;;;;;15.63;45.15;98914.50;5033898;28;20034;-84
2022/05/02 02:25:39;;;;;;;3.33;2.08;;;;;;;15.55;45.46;98917.84;5032551;28;20479;-84
2022/05/02 02:28:04;;;;;;;;;;;;;;;15.53;45.40;98909.28;5032947;28;20591;-84
2022/05/02 02:30:30;;;;;;;4.15;2.03;;;;;;;15.44;45.31;98907.50;5015977;28;19944;-84
2022/05/02 02:32:58;;;;;;;5.45;2.20;;;;;;;15.41;45.63;98898.09;5032572;28;20029;-84
2022/05/02 02:35:24;;;;;;;5.47;2.10;;;;;;;15.34;45.48;98900.47;5031901;28;20053;-84
2022/05/02 02:37:50;;;;;;;8.52;2.17;;;;;;;15.34;45.74;98900.47;5033846;28;20370;-84
2022/05/02 02:40:17;;;;;;;6.53;2.08;;;;;;;15.35;45.65;98898.66;5032259;28;20033;-85
2022/05/02 02:42:42;;;;;;;3.63;2.13;;;;;;;15.31;45.69;98890.25;5032469;28;20034;-84
2022/05/02 02:45:08;;;;;;;6.47;2.53;;;;;;;15.28;45.50;98895.78;5015651;28;20503;-84
2022/05/02 02:47:34;;;;;;;7.90;2.40;;;;;;;15.25;45.70;98896.06;5032585;28;20017;-85
2022/05/02 02:49:59;;;;;;;6.07;2.20;;;;;;;15.25;45.65;98890.81;5032342;28;20374;-86
2022/05/02 02:52:25;;;;;;;3.33;2.10;;;;;;;15.21;45.81;98884.16;5032070;28;20030;-86
2022/05/02 02:54:50;;;;;;;5.68;1.98;;;;;;;15.15;46.10;98882.16;5032446;28;20467;-86
2022/05/02 02:57:16;;;;;;;3.95;1.95;;;;;;;15.13;45.94;98870.91;5033054;28;20151;-86
2022/05/02 02:59:41;;;;;;;4.38;1.95;;;;;;;15.11;45.97;98876.31;5032169;28;20473;-87
2022/05/02 03:02:07;;;;;;;4.45;2.20;;;;;;;15.10;46.19;98873.84;5032761;28;20097;-86
2022/05/02 03:07:17;;;;;;;5.30;2.47;;;;;;;15.07;46.01;98880.22;5032432;28;20044;-86
2022/05/02 03:09:42;;;;;;;3.45;2.10;;;;;;;15.06;45.74;98870.66;5015508;28;20033;-86
2022/05/02 03:12:09;;;;;;;5.28;2.53;;;;;;;15.05;45.78;98882.13;5033024;28;20473;-86
2022/05/02 03:14:34;;;;;;;4.60;2.42;;;;;;;15.04;46.00;98879.66;5032722;28;20030;-85
2022/05/02 03:16:59;;;;;;;6.53;2.38;;;;;;;15.04;45.80;98879.66;5032596;28;20075;-85
2022/05/02 03:19:26;;;;;;;3.65;2.08;;;;;;;15.05;45.75;98878.69;5032922;28;20033;-86
2022/05/02 03:21:52;;;;;;;3.58;1.80;;;;;;;15.08;45.92;98875.78;5031101;28;20448;-86
2022/05/02 03:24:17;;;;;;;4.03;2.20;;;;;;;15.14;45.77;98883.91;5032929;28;20033;-85
2022/05/02 03:26:43;;;;;;;5.80;2.25;;;;;;;15.20;45.66;98887.78;5031474;28;20038;-85
2022/05/02 03:29:08;;;;;;;3.72;2.22;;;;;;;15.26;45.33;98889.84;5031381;28;20034;-86
2022/05/02 03:31:34;;;;;;;2.88;2.00;;;;;;;15.30;45.24;98891.22;5032750;28;20033;-88
2022/05/02 03:33:59;;;;;;;2.90;2.10;;;;;;;15.40;45.26;98893.81;5031190;28;20045;-85
2022/05/02 03:36:24;;;;;;;4.00;2.13;;;;;;;15.63;44.77;98896.91;5032579;28;20464;-88
2022/05/02 03:38:50;;;;;;;5.32;2.38;;;;;;;16.37;42.97;98895.09;5014900;28;20037;-85
2022/05/02 03:41:16;;;;;;;3.40;2.25;;;;;;;17.03;41.68;98889.56;5031320;28;20049;-85
2022/05/02 03:43:42;;;;;;;3.25;2.25;;;;;;;17.68;40.47;98894.38;5031560;28;20033;-86
2022/05/02 03:46:08;;;;;;;3.80;2.00;;;;;;;18.26;39.23;98892.75;5032602;28;20025;-86
2022/05/02 03:48:33;;;;;;;2.65;1.90;;;;;;;18.83;38.10;98883.19;5031342;28;20386;-85
2022/05/02 03:50:59;;;;;;;7.07;2.15;;;;;;;19.57;36.94;98897.13;5031179;28;20037;-84
2022/05/02 03:53:24;;;;;;;4.40;1.83;;;;;;;20.24;35.47;98901.13;5032293;28;20107;-89
2022/05/02 03:55:50;;;;;;;3.80;1.58;;;;;;;20.92;34.26;98899.50;5031432;28;20048;-86
2022/05/02 03:58:15;;;;;;;3.28;1.75;;;;;;;21.42;33.30;98883.88;5032417;28;20465;-87
2022/05/02 04:00:41;;;;;;;4.32;2.00;;;;;;;21.84;32.59;98898.34;5032303;28;20479;-87
2022/05/02 04:03:06;;;;;;;5.18;1.85;;;;;;;22.33;31.47;98896.03;5032578;28;20045;-86
2022/05/02 04:05:32;;;;;;;3.72;1.67;;;;;;;23.10;30.60;98886.50;5032399;28;20113;-87
2022/05/02 04:07:57;;;;;;;3.42;1.60;;;;;;;23.78;29.51;98884.00;5031377;28;20057;-87
2022/05/02 04:10:23;;;;;;;2.40;1.50;;;;;;;24.13;28.87;98869.78;5032739;28;20029;-87
2022/05/02 04:12:48;;;;;;;2.75;1.60;;;;;;;24.57;28.31;98887.09;5031545;28;20468;-87
2022/05/02 04:15:14;;;;;;;2.20;1.58;;;;;;;25.16;27.33;98881.94;5031449;28;20037;-87
2022/05/02 04:17:40;;;;;;;5.93;1.67;;;;;;;25.58;26.68;98883.31;5031033;28;20117;-87
2022/05/02 04:20:06;;;;;;;4.35;1.40;;;;;;;26.25;26.08;98880.34;5035253;28;20028;-86
2022/05/02 04:22:31;;;;;;;6.22;1.60;;;;;;;26.72;25.05;98874.69;5037289;28;20523;-88
2022/05/02 04:24:57;;;;;;;4.18;1.70;;;;;;;27.35;24.60;98873.69;5031528;28;20026;-89
2022/05/02 04:27:22;;;;;;;3.45;1.60;;;;;;;27.96;23.49;98877.31;5031837;28;20053;-89
2022/05/02 04:29:48;;;;;;;2.45;1.45;;;;;;;28.48;23.00;98874.09;5031461;28;20072;-87
2022/05/02 04:32:13;;;;;;;2.92;1.42;;;;;;;29.12;22.35;98876.16;5033263;28;20382;-88
2022/05/02 04:34:39;;;;;;;4.80;1.65;;;;;;;29.63;21.61;98865.69;5033949;28;20057;-88
2022/05/02 04:37:04;;;;;;;3.63;1.50;;;;;;;30.18;21.31;98866.22;5035863;28;20481;-86
2022/05/02 04:39:30;;;;;;;3.50;1.50;;;;;;;30.70;20.76;98874.09;5036344;28;20087;-87
2022/05/02 04:41:55;;;;;;;5.43;1.50;;;;;;;31.18;19.89;98869.16;5039654;28;20656;-87
2022/05/02 04:44:21;;;;;;;5.85;1.35;;;;;;;31.63;19.52;98864.63;5051585;28;20033;-87
2022/05/02 04:46:46;;;;;;;2.47;1.40;;;;;;;32.08;19.47;98866.19;5052381;28;20021;-87
2022/05/02 04:49:12;;;;;;;4.35;1.30;;;;;;;32.50;18.97;98857.44;5050975;28;20046;-89
2022/05/02 04:51:37;;;;;;;4.82;1.45;;;;;;;32.92;18.26;98859.38;5046469;28;20037;-88
2022/05/02 04:54:03;;;;;;;3.90;1.70;;;;;;;33.33;17.90;98859.63;5035516;28;20055;-88
2022/05/02 04:56:28;;;;;;;6.00;1.55;;;;;;;33.73;17.90;98860.06;5036457;28;20025;-88
2022/05/02 04:58:54;;;;;;;2.05;1.50;;;;;;;34.10;17.62;98863.69;5035522;28;20416;-88
2022/05/02 05:01:19;;;;;;;3.75;1.85;;;;;;;34.36;17.20;98862.63;5033917;28;20053;-87
2022/05/02 05:03:46;;;;;;;3.90;1.90;;;;;;;34.60;16.59;98856.66;5035228;28;20034;-80
2022/05/02 05:06:11;;;;;;;6.25;1.67;;;;;;;34.87;16.09;98869.97;5034162;28;20036;-88
2022/05/02 05:08:37;;;;;;;4.45;2.10;;;;;;;35.18;16.21;98860.94;5035191;28;20037;-88
2022/05/02 05:11:25;;;;;;;3.65;1.67;;;;;;;35.42;15.96;98863.84;5034951;28;20032;-87
2022/05/02 05:17:05;;;;;;;3.92;2.00;;;;;;;36.08;15.03;98859.19;5035107;28;20095;-87
2022/05/02 05:20:01;;;;;;;4.65;1.90;;;;;;;36.23;14.70;98857.16;5035103;28;20029;-86
2022/05/02 05:22:40;;;;;;;4.93;1.70;;;;;;;36.46;14.67;98859.47;5035015;28;20029;-81
2022/05/02 05:25:28;;;;;;;6.63;1.83;;;;;;;36.58;14.36;98855.28;5033553;28;20264;-85
2022/05/02 05:28:18;;;;;;;4.85;1.80;;;;;;;36.83;14.12;98864.31;5033558;28;20026;-81
2022/05/02 05:30:44;;;;;;;2.60;1.20;;;;;;;37.10;17.70;98865.66;5034676;28;20124;-79
2022/05/02 05:33:22;;;;;;;6.63;1.58;;;;;;;36.96;15.57;98870.16;5038605;28;20041;-82
2022/05/02 05:36:03;;;;;;;5.53;1.58;;;;;;;36.92;14.68;98872.66;5034394;28;20045;-73
2022/05/02 05:38:39;;;;;;;8.65;1.70;;;;;;;36.88;14.41;98872.44;5033582;28;20033;-74
2022/05/02 05:41:17;;;;;;;11.13;1.80;;;;;;;36.87;14.34;98873.50;5033221;28;20025;-75
2022/05/02 05:43:52;;;;;;;4.05;1.70;;;;;;;36.97;13.95;98879.97;5034499;28;20029;-74
2022/05/02 05:46:33;;;;;;;5.00;1.60;;;;;;;36.97;13.77;98890.84;5032613;28;20451;-77
2022/05/02 05:49:02;;;;;;;4.38;1.70;;;;;;;36.89;13.78;98886.84;5034032;28;20040;-74
2022/05/02 05:51:52;;;;;;;2.92;1.70;;;;;;;36.90;13.64;98894.69;5033972;28;20022;-74
2022/05/02 05:54:36;;;;;;;7.97;1.88;;;;;;;36.88;13.51;98896.91;5033100;28;20026;-76
2022/05/02 05:57:29;;;;;;;7.65;2.25;;;;;;;36.67;13.90;98903.59;5034031;28;20028;-73
2022/05/02 06:00:07;;;;;;;7.15;2.58;;;;;;;36.64;13.97;98898.72;5034294;28;20485;-71
2022/05/02 06:03:08;;;;;;;25.27;3.50;;;;;;;36.53;16.39;98904.25;5034049;28;20400;-71
2022/05/02 06:05:44;;;;;;;17.20;3.17;;;;;;;36.27;16.35;98906.34;5033248;28;20038;-70
2022/05/02 06:08:14;;;;;;;24.35;3.65;;;;;;;36.12;16.55;98903.69;5016328;28;20047;-71
2022/05/02 06:10:42;;;;;;;10.40;2.58;;;;;;;36.06;16.29;98905.66;5032944;28;20037;-74
2022/05/02 06:13:08;;;;;;;6.72;2.47;;;;;;;35.89;16.65;98902.50;5032345;28;20045;-72
2022/05/02 06:18:28;;;;;;;8.27;2.40;;;;;;;35.82;17.86;98919.06;5032621;28;20120;-72
2022/05/02 06:20:59;;;;;;;11.48;2.45;;;;;;;35.68;18.36;98908.81;5032255;28;20037;-72
2022/05/02 06:23:26;;;;;;;6.82;2.45;;;;;;;35.39;17.87;98899.69;5031901;28;20029;-72
2022/05/02 06:25:53;;;;;;;5.83;2.17;;;;;;;35.18;18.17;98913.28;5015548;28;20029;-77
2022/05/02 06:28:19;;;;;;;7.28;2.30;;;;;;;35.12;16.56;98915.22;5016464;28;20050;-73
2022/05/02 06:30:44;;;;;;;4.07;1.80;;;;;;;35.12;16.84;98920.63;5032757;28;20500;-78
2022/05/02 06:33:12;;;;;;;4.20;1.95;;;;;;;35.15;15.92;98922.81;5032268;28;20069;-75
2022/05/02 06:35:58;;;;;;;3.40;1.85;;;;;;;34.90;15.40;98911.97;5032954;28;20042;-75
2022/05/02 06:38:50;;;;;;;4.68;2.53;;;;;;;35.00;15.95;98925.53;5032427;28;20025;-77
2022/05/02 06:41:41;;;;;;;7.05;2.25;;;;;;;35.01;15.31;98920.91;5032107;28;20041;-78
2022/05/02 06:44:30;;;;;;;6.15;2.20;;;;;;;35.16;15.57;98929.03;5033374;28;20469;-79
2022/05/02 06:47:21;;;;;;;7.28;2.03;;;;;;;35.13;15.18;98913.31;5031022;28;20512;-79
2022/05/02 06:49:49;;;;;;;4.20;1.70;;;;;;;35.10;15.13;98914.66;5017657;28;20057;-78
2022/05/02 06:52:15;;;;;;;5.03;1.80;;;;;;;35.04;15.01;98910.31;5032000;28;20059;-78
2022/05/02 06:55:12;;;;;;;4.10;1.90;;;;;;;34.99;14.64;98904.09;5031781;28;20114;-78
2022/05/02 06:57:37;;;;;;;7.60;4.43;;;;;;;34.92;15.01;98899.78;5031158;28;20091;-78
2022/05/02 07:00:15;;;;;;;6.75;3.03;;;;;;;34.88;15.34;98898.69;5032758;28;20463;-78
2022/05/02 07:03:20;;;;;;;7.32;3.20;;;;;;;34.91;15.33;98909.00;5032111;28;20026;-78
2022/05/02 07:06:22;;;;;;;4.13;2.53;;;;;;;34.84;15.09;98918.47;5032803;28;20025;-79
2022/05/02 07:09:00;;;;;;;6.22;2.67;;;;;;;34.85;14.66;98914.69;5027641;28;20568;-79
2022/05/02 07:11:32;;;;;;;4.68;2.63;;;;;;;34.72;14.68;98908.72;5015149;28;20489;-78
2022/05/02 07:14:24;;;;;;;6.18;2.70;;;;;;;34.63;14.55;98910.34;5031510;28;20056;-78
2022/05/02 07:16:49;;;;;;;5.00;1.95;;;;;;;34.62;14.85;98903.31;5030259;28;20079;-79
2022/05/02 07:19:30;;;;;;;6.32;2.00;;;;;;;34.49;14.69;98901.94;5013413;28;20494;-78
2022/05/02 07:22:01;;;;;;;4.70;1.73;;;;;;;34.30;14.04;98893.53;4982357;28;20098;-79
2022/05/02 07:24:49;;;;;;;2.15;1.45;;;;;;;34.00;14.35;98899.66;5013636;28;20045;-79
2022/05/02 07:27:27;;;;;;;3.75;1.48;;;;;;;33.99;14.77;98898.06;5014306;28;20168;-79
2022/05/02 07:29:53;;;;;;;2.33;1.40;;;;;;;34.06;14.36;98894.00;5014091;28;20034;-79
2022/05/02 07:32:21;;;;;;;4.90;1.60;;;;;;;33.87;14.21;98890.16;5013797;28;20079;-80
2022/05/02 07:34:48;;;;;;;3.72;1.30;;;;;;;33.75;14.54;98894.97;4997252;28;20053;-80
2022/05/02 07:37:15;;;;;;;3.05;1.40;;;;;;;33.60;14.60;98896.53;4997550;28;20413;-79
2022/05/02 07:39:40;;;;;;;4.93;1.25;;;;;;;33.64;14.53;98886.81;5030340;28;20076;-79
2022/05/02 07:42:06;;;;;;;3.58;1.42;;;;;;;32.98;15.11;98884.56;4997470;28;20052;-79
2022/05/02 07:44:34;;;;;;;6.05;1.50;;;;;;;33.11;15.26;98892.19;4997750;28;20083;-80
2022/05/02 07:47:01;;;;;;;3.20;1.38;;;;;;;33.32;14.65;98890.47;4997658;28;20033;-79
2022/05/02 07:49:28;;;;;;;3.40;1.30;;;;;;;32.55;14.92;98903.41;5013673;28;20073;-79
2022/05/02 07:51:54;;;;;;;4.20;1.40;;;;;;;32.05;15.14;98885.59;5013474;28;20103;-79
2022/05/02 07:54:24;;;;;;;5.28;1.65;;;;;;;31.66;15.50;98872.22;5030642;28;20120;-79
2022/05/02 07:56:50;;;;;;;3.55;1.33;;;;;;;31.09;15.98;98882.28;5014607;28;20038;-79
2022/05/02 07:59:16;;;;;;;4.50;1.40;;;;;;;31.10;16.10;98869.59;5014358;28;20044;-79
2022/05/02 08:01:42;;;;;;;3.83;1.52;;;;;;;31.11;16.33;98865.84;5030982;28;20022;-79
2022/05/02 08:04:13;;;;;;;3.42;1.40;;;;;;;31.12;16.17;98862.91;5032369;28;20038;-80
2022/05/02 08:07:02;;;;;;;2.88;1.52;;;;;;;31.00;16.17;98867.59;5031397;28;20037;-79
2022/05/02 08:09:55;;;;;;;5.38;1.42;;;;;;;30.72;16.77;98871.16;5034899;28;20033;-79
2022/05/02 08:12:56;;;;;;;2.10;1.30;;;;;;;30.95;16.67;98859.41;5035787;28;20025;-80
2022/05/02 08:15:27;;;;;;;3.08;1.40;;;;;;;30.96;16.53;98866.41;5033598;28;20087;-80
2022/05/02 08:18:23;;;;;;;3.65;1.40;;;;;;;30.67;17.19;98859.25;4984904;28;20053;-78
2022/05/02 08:20:55;;;;;;;5.47;1.60;;;;;;;30.94;16.66;98860.44;5020792;28;20045;-81
2022/05/02 08:29:19;;;;;;;3.28;1.25;;;;;;;30.16;18.00;98836.84;5020175;28;20083;-80
2022/05/02 08:32:05;;;;;;;3.08;1.42;;;;;;;29.96;18.07;98834.59;5033805;28;20075;-81
2022/05/02 08:34:36;;;;;;;2.83;1.42;;;;;;;29.45;18.48;98820.97;5002441;28;20099;-82
2022/05/02 08:37:15;;;;;;;4.05;1.30;;;;;;;29.49;18.08;98832.84;5018138;28;20034;-82
2022/05/02 08:40:04;;;;;;;3.80;1.42;;;;;;;29.58;18.42;98814.50;5017797;28;20045;-81
2022/05/02 08:43:07;;;;;;;4.05;1.25;;;;;;;29.73;17.89;98811.25;5033841;28;20037;-81
2022/05/02 08:45:51;;;;;;;3.38;1.63;;;;;;;29.41;18.15;98811.72;5033448;28;20216;-81
2022/05/02 08:48:34;;;;;;;4.38;1.40;;;;;;;29.07;18.67;98805.38;5033806;28;20128;-80
2022/05/02 08:51:58;;;;;;;4.15;1.50;;;;;;;29.18;19.03;98791.09;5033358;28;20037;-81
2022/05/02 08:54:41;;;;;;;3.17;1.60;;;;;;;29.29;18.74;98784.88;5033211;28;20032;-81
2022/05/02 08:57:39;;;;;;;2.28;1.20;;;;;;;29.48;18.53;98779.34;5033192;28;20041;-80
2022/05/02 09:00:31;;;;;;;3.67;1.45;;;;;;;29.37;18.92;98776.44;5002500;28;20037;-81
2022/05/02 09:03:08;;;;;;;3.13;1.20;;;;;;;29.30;18.79;98770.38;4936229;29;20494;-81
2022/05/02 09:05:44;;;;;;;3.90;1.40;;;;;;;28.89;19.26;98766.81;4935976;29;20058;-81
2022/05/02 09:08:28;;;;;;;6.20;1.60;;;;;;;28.64;19.11;98767.91;4919822;29;20044;-82
2022/05/02 09:11:12;;;;;;;2.38;1.13;;;;;;;28.49;19.68;98754.09;4935607;29;20059;-81
2022/05/02 09:13:43;;;;;;;4.75;1.40;;;;;;;28.49;19.77;98744.16;4935532;29;20044;-81
2022/05/02 09:16:35;;;;;;;2.20;1.20;;;;;;;28.46;19.66;98741.94;4935915;29;20095;-80
2022/05/02 09:19:25;;;;;;;3.63;1.30;;;;;;;28.29;19.65;98732.94;4935600;29;20059;-81
2022/05/02 09:21:57;;;;;;;5.43;1.20;;;;;;;27.99;20.20;98739.25;4935388;29;20036;-79
2022/05/02 09:25:16;;;;;;;3.15;1.13;;;;;;;28.15;20.43;98745.81;4938862;29;20043;-86
2022/05/02 09:27:54;;;;;;;3.05;1.13;;;;;;;28.30;20.24;98743.47;4954848;28;20031;-79
2022/05/02 09:30:42;;;;;;;3.28;1.17;;;;;;;28.50;20.16;98750.38;4954527;29;20047;-81
2022/05/02 09:33:29;;;;;;;3.40;1.05;;;;;;;28.65;20.07;98739.97;4938639;29;20498;-80
2022/05/02 09:36:04;;;;;;;4.18;1.05;;;;;;;28.60;20.23;98747.13;4954507;29;20052;-81
2022/05/02 09:38:40;;;;;;;2.72;1.38;;;;;;;28.40;20.44;98742.06;4938481;29;20035;-80
2022/05/02 09:41:31;;;;;;;2.25;1.10;;;;;;;28.40;20.40;98734.00;5017336;28;20481;-81
2022/05/02 09:50:32;;;;;;;3.35;1.20;;;;;;;27.95;20.93;98730.00;5033939;28;20063;-77
2022/05/02 09:53:02;;;;;;;2.05;1.10;;;;;;;27.98;20.79;98729.56;5033406;28;20021;-78
2022/05/02 09:58:43;;;;;;;3.20;1.13;;;;;;;27.93;21.15;98724.03;5018466;28;20037;-78
2022/05/02 10:01:30;;;;;;;7.75;1.40;;;;;;;27.89;20.85;98726.34;5015634;28;20041;-78
2022/05/02 10:04:04;;;;;;;4.70;1.42;;;;;;;27.73;20.98;98727.81;5031940;28;20034;-82
2022/05/02 10:06:33;;;;;;;2.47;1.25;;;;;;;27.43;20.79;98730.53;5000056;28;20151;-87
2022/05/02 10:09:11;;;;;;;4.18;1.30;;;;;;;27.19;20.86;98718.84;5032262;28;20041;-76
2022/05/02 10:11:47;;;;;;;2.25;1.25;;;;;;;27.19;21.40;98730.38;5015846;28;20033;-76
2022/05/02 10:14:42;;;;;;;2.97;1.30;;;;;;;27.13;21.16;98720.56;5015550;28;20136;-82
2022/05/02 10:17:10;;;;;;;4.88;1.20;;;;;;;27.07;21.55;98724.97;5015139;28;20105;-82
2022/05/02 10:19:35;;;;;;;;;;;;;;;27.24;21.46;98727.84;4983583;28;20063;-81
2022/05/02 10:22:19;;;;;;;5.43;1.50;;;;;;;27.33;21.12;98725.72;5031572;28;20419;-82
2022/05/02 10:25:10;;;;;;;3.55;1.40;;;;;;;27.51;21.24;98724.03;5031483;28;20041;-78
2022/05/02 10:27:54;;;;;;;5.45;1.80;;;;;;;27.25;21.67;98734.84;5008427;28;20121;-78
2022/05/02 10:30:19;;;;;;;3.15;1.60;;;;;;;27.12;21.35;98726.16;4999584;28;20033;-78
2022/05/02 10:32:52;;;;;;;6.05;1.42;;;;;;;27.00;21.57;98721.53;4998815;28;20029;-77
2022/05/02 10:35:19;;;;;;;4.65;2.05;;;;;;;26.95;21.95;98728.63;5030690;28;20103;-80
2022/05/02 10:37:55;;;;;;;3.45;1.80;;;;;;;26.66;22.36;98723.78;5015885;28;20033;-81
2022/05/02 10:40:34;;;;;;;5.93;2.30;;;;;;;26.73;22.03;98710.31;5031736;28;20036;-80
2022/05/02 10:43:03;;;;;;;4.78;1.63;;;;;;;26.66;22.32;98714.91;5032077;28;20405;-80
2022/05/02 10:45:29;;;;;;;5.20;1.40;;;;;;;26.68;22.29;98708.31;5031928;28;20064;-80
2022/05/02 10:47:55;;;;;;;3.67;1.50;;;;;;;26.44;22.67;98712.66;5015547;28;20493;-80
2022/05/02 10:50:44;;;;;;;3.83;1.48;;;;;;;26.39;22.49;98703.63;5032143;28;20121;-80
2022/05/02 10:53:31;;;;;;;5.22;1.30;;;;;;;26.22;22.60;98701.53;5015929;28;20032;-79
2022/05/02 10:56:24;;;;;;;4.15;1.83;;;;;;;26.19;22.79;98693.94;5033104;28;20083;-81
2022/05/02 10:58:50;;;;;;;3.85;1.65;;;;;;;26.48;22.16;98689.75;5031773;28;20103;-81
2022/05/02 11:01:40;;;;;;;6.22;1.52;;;;;;;26.24;22.72;98696.78;5031951;28;20029;-80
2022/05/02 11:04:44;;;;;;;5.82;1.67;;;;;;;26.20;22.35;98676.84;5032967;28;20060;-79
2022/05/02 11:07:38;;;;;;;5.93;1.60;;;;;;;25.95;22.78;98677.66;5001776;28;20037;-80
2022/05/02 11:10:12;;;;;;;4.22;1.60;;;;;;;25.66;23.30;98673.75;5032088;28;20038;-79
2022/05/02 11:12:51;;;;;;;3.33;1.50;;;;;;;25.80;23.62;98675.28;5031907;28;20056;-80
2022/05/02 11:15:29;;;;;;;5.07;1.80;;;;;;;25.66;23.33;98660.38;5033024;28;20056;-80
2022/05/02 11:18:08;;;;;;;4.35;2.10;;;;;;;25.27;23.71;98654.25;5015590;28;20388;-80
2022/05/02 11:20:42;;;;;;;4.20;1.67;;;;;;;24.94;24.43;98657.91;5017122;28;20049;-80
2022/05/02 11:23:34;;;;;;;3.60;1.63;;;;;;;24.91;24.24;98645.78;5031356;28;20484;-80
2022/05/02 11:26:50;;;;;;;2.47;1.58;;;;;;;24.97;24.28;98649.47;5014920;28;20026;-80
2022/05/02 11:29:38;;;;;;;6.20;1.58;;;;;;;25.15;24.04;98645.28;5013572;28;20076;-81
2022/05/02 11:32:05;;;;;;;4.32;1.52;;;;;;;25.23;24.11;98645.84;5015047;28;20175;-79
2022/05/02 11:34:47;;;;;;;4.53;1.48;;;;;;;24.94;24.43;98649.91;4996475;28;20095;-80
2022/05/02 11:37:28;;;;;;;3.55;1.60;;;;;;;25.04;24.34;98649.44;4997700;28;20045;-79
2022/05/02 11:39:57;;;;;;;3.78;1.67;;;;;;;24.93;24.55;98662.41;4997427;28;20037;-81
2022/05/02 11:42:23;;;;;;;2.70;1.52;;;;;;;24.72;24.87;98647.50;5013528;28;20404;-80
2022/05/02 11:45:12;;;;;;;3.35;1.52;;;;;;;24.85;24.78;98651.97;5013869;28;20087;-80
2022/05/02 11:48:02;;;;;;;4.65;1.73;;;;;;;24.76;24.65;98647.91;4983936;28;20033;-84
2022/05/02 11:50:28;;;;;;;5.75;1.85;;;;;;;24.76;24.31;98644.44;5030412;28;20136;-83
2022/05/02 11:52:55;;;;;;;6.70;1.90;;;;;;;24.58;24.40;98642.44;5013475;28;20497;-79
2022/05/02 11:55:33;;;;;;;7.03;1.73;;;;;;;24.59;24.45;98636.91;5013513;28;20593;-79
2022/05/02 11:58:08;;;;;;;5.55;1.60;;;;;;;24.82;24.07;98633.72;5014238;28;20049;-79
2022/05/02 12:00:35;;;;;;;4.15;1.65;;;;;;;24.79;24.18;98636.00;4981924;28;20477;-80
2022/05/02 12:03:10;;;;;;;3.33;1.80;;;;;;;24.86;24.00;98644.78;5002731;28;20037;-80
2022/05/02 12:05:43;;;;;;;3.38;1.60;;;;;;;24.62;24.38;98625.81;5030863;28;20049;-79
2022/05/02 12:08:10;;;;;;;2.83;1.70;;;;;;;24.86;24.38;98626.09;5030811;28;20105;-79
2022/05/02 12:10:48;;;;;;;3.85;1.70;;;;;;;24.88;24.34;98634.72;5030776;28;20040;-80
2022/05/02 12:13:20;;;;;;;6.35;1.70;;;;;;;24.61;24.13;98629.50;5014822;28;20030;-80
2022/05/02 12:15:58;;;;;;;3.40;1.60;;;;;;;24.35;24.43;98641.00;5014472;28;20033;-79
2022/05/02 12:18:43;;;;;;;2.33;1.60;;;;;;;24.23;24.84;98630.19;4998812;28;20033;-79
2022/05/02 12:21:24;;;;;;;4.22;1.88;;;;;;;24.27;24.81;98620.72;5030512;28;20132;-79
2022/05/02 12:23:52;;;;;;;3.22;1.65;;;;;;;24.39;24.63;98620.91;5014256;28;20030;-79
2022/05/02 12:26:21;;;;;;;3.72;1.80;;;;;;;24.60;24.59;98613.69;5014256;28;20092;-80
2022/05/02 12:28:49;;;;;;;2.15;1.38;;;;;;;24.80;24.38;98594.94;5014266;28;20043;-83
2022/05/02 12:31:40;;;;;;;4.85;1.90;;;;;;;24.81;24.45;98599.22;5031076;28;20116;-79